Nearby METAR Reports

 

KCMA - Camarillo, California, USA
Distance from station: WSW 4mi, 7km
Updated: Wed, 20-Feb-2019 7:55pm PST
NOT Current
Clear
Clear
 Wind from W
Wind: W 24 mph , 39 km/h, Gust: 31 mph , 50 km/h
Temperature: 54°F , 12°C
Dew Point: 37°F , 3°C
Humidity: 54%
Barometer: 29.71 inHg , 1006.1 hPa
Clouds: Clear
Visibility: 10 miles , 16 km
2019/02/21 03:55 KCMA 210355Z 27021G27KT 10SM CLR 12/03 A2971 RMK AO2 PK WND 27028/0344 SLP068 T01170033
KNTD - Point Mugu Nas, California, USA
Distance from station: SSW 9mi, 15km
Updated: Thu, 21-Feb-2019 5:57am PST
Mostly cloudy
Mostly cloudy
 Wind from NNE
Wind: NNE 6 mph , 9 km/h
Temperature: 45°F , 7°C
Wind Chill: 42°F , 6°C
Dew Point: 34°F , 1°C
Humidity: 66%
Barometer: 29.64 inHg , 1003.7 hPa
Clouds: Mostly cloudy
Visibility: 10 miles , 16 km
Cloud details: Mostly cloudy 14000 ft
2019/02/21 13:57 KNTD 211357Z 02005KT 10SM BKN140 07/01 A2964 RMK AO2 SLP039 T00670011 $
 
KOXR - Oxnard, California, USA
Distance from station: WSW 10mi, 16km
Updated: Thu, 21-Feb-2019 5:51am PST
Clear
Clear
 Wind from WNW
Wind: WNW 12 mph , 19 km/h
Temperature: 46°F , 8°C
Wind Chill: 40°F , 4°C
Dew Point: 37°F , 3°C
Humidity: 71%
Barometer: 29.63 inHg , 1003.4 hPa
Clouds: Clear
Visibility: 10 miles , 16 km
2019/02/21 13:51 KOXR 211351Z AUTO 30010KT 10SM CLR 08/03 A2963 RMK AO2 SLP034 T00830033 PWINO
KVNY - Van Nuys, California, USA
Distance from station: E 31mi, 50km
Updated: Thu, 21-Feb-2019 5:51am PST
Mostly cloudy
Mostly cloudy
 Wind from calm
Wind: Calm
Temperature: 45°F , 7°C
Dew Point: 37°F , 3°C
Humidity: 76%
Barometer: 29.61 inHg , 1002.7 hPa
Clouds: Mostly cloudy
Visibility: 10 miles , 16 km
Cloud details: Few Clouds 3000 ft
Partly cloudy 5000 ft
Mostly cloudy 10000 ft
2019/02/21 13:51 KVNY 211351Z 00000KT 10SM FEW030 SCT050 BKN100 07/03 A2961 RMK AO2 SLP024 T00670033
 
KWHP - La / Whiteman, California, USA
Distance from station: E 35mi, 56km
Updated: Wed, 20-Feb-2019 6:50pm PST
NOT Current
Overcast
Overcast
 Wind from NE
Wind: NE 12 mph , 19 km/h
Temperature: 45°F , 7°C
Wind Chill: 39°F , 4°C
Dew Point: 39°F , 4°C
Humidity: 81%
Barometer: 29.76 inHg , 1007.8 hPa
Clouds: Overcast
Visibility: 10 miles , 16 km
Cloud details: Overcast 3000 ft
2019/02/21 02:50 KWHP 210250Z 05010KT 10SM OVC030 07/04 A2976
KSMO - Santa Monica, California, USA
Distance from station: ESE 36mi, 58km
Updated: Thu, 21-Feb-2019 5:51am PST
Clear
Clear
 Wind from varies
Wind: varies 3 mph , 6 km/h
Temperature: 45°F , 7°C
Dew Point: 37°F , 3°C
Humidity: 76%
Barometer: 29.63 inHg , 1003.4 hPa
Clouds: Clear
Visibility: 10 miles , 16 km
2019/02/21 13:51 KSMO 211351Z AUTO VRB03KT 10SM CLR 07/03 A2963 RMK AO2 SLP033 T00670028 $
 
KBUR - Burbank, California, USA
Distance from station: E 38mi, 61km
Updated: Thu, 21-Feb-2019 5:53am PST
Clear
Clear
 Wind from SW
Wind: SW 5 mph , 7 km/h
Temperature: 41°F , 5°C
Wind Chill: 38°F , 3°C
Dew Point: 37°F , 3°C
Humidity: 87%
Barometer: 29.61 inHg , 1002.7 hPa
Clouds: Clear
Visibility: 10 miles , 16 km
2019/02/21 13:53 KBUR 211353Z 23004KT 10SM CLR 05/03 A2961 RMK AO2 SLP021 T00500033 $
KSDB - Sandberg, California, USA
Distance from station: NNE 40mi, 64km
Updated: Thu, 21-Feb-2019 6:25am PST
Mostly cloudy
Mostly cloudy
 Wind from N
Wind: N 5 mph , 7 km/h
Temperature: 27°F , -3°C
Wind Chill: 21°F , -6°C
Dew Point: 25°F , -4°C
Humidity: 93%
Barometer: 29.53 inHg , 1000 hPa
Clouds: Mostly cloudy
Visibility: 10 miles , 16 km
Cloud details: Few Clouds 800 ft
Partly cloudy 1200 ft
Mostly cloudy 3600 ft
2019/02/21 14:25 KSDB 211425Z AUTO 01004KT 10SM FEW008 SCT012 BKN036 M03/M04 A2953 RMK AO2 SNB05E14 P0000 T10281044
 
KLAX - Los Angeles, California, USA
Distance from station: ESE 42mi, 68km
Updated: Thu, 21-Feb-2019 5:53am PST
Mostly cloudy
Mostly cloudy
 Wind from NNW
Wind: NNW 6 mph , 9 km/h
Temperature: 46°F , 8°C
Wind Chill: 43°F , 6°C
Dew Point: 37°F , 3°C
Humidity: 71%
Barometer: 29.63 inHg , 1003.4 hPa
Clouds: Mostly cloudy
Visibility: 10 miles , 16 km
Cloud details: Few Clouds 1900 ft
Few Clouds 3500 ft
Partly cloudy 8000 ft
Mostly cloudy 14000 ft
2019/02/21 13:53 KLAX 211353Z 33005KT 10SM FEW019 FEW035 SCT080 BKN140 08/03 A2963 RMK AO2 SLP033 T00830028 $
KCQT - Los Angeles, California, USA
Distance from station: ESE 45mi, 73km
Updated: Thu, 21-Feb-2019 5:47am PST
Partly cloudy
Partly cloudy
 Wind from calm
Wind: Calm
Temperature: 43°F , 6°C
Dew Point: 39°F , 4°C
Humidity: 87%
Barometer: 29.63 inHg , 1003.4 hPa
Clouds: Partly cloudy
Visibility: 9 miles , 14 km
Cloud details: Few Clouds 4500 ft
Partly cloudy 5000 ft
2019/02/21 13:47 KCQT 211347Z AUTO 00000KT 9SM FEW045 SCT050 06/04 A2963 RMK AO2 SLP032 T00610044
 
KHHR - Hawthorne, California, USA
Distance from station: ESE 45mi, 73km
Updated: Thu, 21-Feb-2019 5:53am PST
Clear
Clear
 Wind from calm
Wind: Calm
Temperature: 45°F , 7°C
Dew Point: 39°F , 4°C
Humidity: 81%
Barometer: 29.63 inHg , 1003.4 hPa
Clouds: Clear
Visibility: 10 miles , 16 km
2019/02/21 13:53 KHHR 211353Z AUTO 00000KT 10SM CLR 07/04 A2963 RMK AO2 SLP035 T00670039
KSBA - Santa Barbara, California, USA
Distance from station: WNW 49mi, 79km
Updated: Thu, 21-Feb-2019 5:53am PST
Mostly cloudy
Mostly cloudy
 Wind from E
Wind: E 7 mph , 11 km/h
Temperature: 43°F , 6°C
Wind Chill: 39°F , 4°C
Dew Point: 37°F , 3°C
Humidity: 81%
Barometer: 29.65 inHg , 1004.1 hPa
Clouds: Mostly cloudy
Visibility: 10 miles , 16 km
Cloud details: Mostly cloudy 11000 ft
2019/02/21 13:53 KSBA 211353Z 08006KT 10SM BKN110 06/03 A2965 RMK AO2 SLP038 T00610028